ラスベガス の空港の天気 - METARとTAF

マッカラン国際空港 ( KLAS / LAS ) - アメリカ ネバダ州ラスベガス
飛行場実況気象(Metar)
観測時間10/14 01:56 PDT (10/14 08:56 UTC)
風向・風速西南西 2m/s
視程10km以上
天気現象
なし
気温16.1℃
湿度16%
気圧1009.3hPa
METARKLAS 140856Z 25003KT 10SM CLR 16/M09 A2986 RMK AO2 SLP093 T01611094 53003
過去の天気等 Google飛行場航空写真 Wunderground天気予報

過去48時間のMETAR

飛行場予報(TAF)
発表時間: 10/14 01:49 PDT (10/14 08:49 UTC)
予報対象時間: 14日2時 PDT ~ 15日5時 PDT
風向・風速南西 3m/s
視程10km以上
なし
14日9時 PDT から
風向・風速不定 2m/s
視程10km以上
少しの雲 雲底高度 7620m
14日13時 PDT から
風向・風速東 3m/s
視程10km以上
少しの雲 雲底高度 7620m
14日20時 PDT から
風向・風速南西 4m/s
視程10km以上
なし
KLAS 140849Z 1409/1512 22006KT P6SM SKC
FM141600 VRB04KT P6SM FEW250
FM142000 10006KT P6SM FEW250
FM150300 22007KT P6SM SKC